Time;durP1;ratioP1;P1;durP2;ratioP2;P2;SDS_P1;SDS_P2;PMS_P1;PMS_P2;Temp;Humidity;BMP_temperature;BMP_pressure;BME280_temperature;BME280_humidity;BME280_pressure;Samples;Min_cycle;Max_cycle;Signal;HPM_P1;HPM_P2
2023/07/11 00:00:49;;;;;;;;;;;;;;;27.44;96.67;99851.72;5009656;28;19917;-75
2023/07/11 00:03:14;;;;;;;;;;;;;;;27.46;97.27;99852.28;5009591;28;19973;-75
2023/07/11 00:05:40;;;;;;;;;;;;;;;27.41;97.70;99845.94;5009534;28;19917;-75
2023/07/11 00:08:06;;;;;;;;;;;;;;;27.36;98.41;99846.69;5008558;28;20349;-74
2023/07/11 00:10:31;;;;;;;;;;;;;;;27.36;98.97;99845.84;5009783;28;19918;-75
2023/07/11 00:12:56;;;;;;;;;;;;;;;27.26;100.00;99849.22;5011527;28;20360;-74
2023/07/11 00:15:22;;;;;;;;;;;;;;;27.19;100.00;99838.53;5017483;28;19921;-75
2023/07/11 00:17:48;;;;;;;;;;;;;;;27.12;100.00;99837.88;5012471;28;19947;-74
2023/07/11 00:20:14;;;;;;;;;;;;;;;27.06;100.00;99844.25;5007634;28;19918;-75
2023/07/11 00:22:42;;;;;;;;;;;;;;;26.96;100.00;99846.78;5008058;28;19917;-73
2023/07/11 00:25:08;;;;;;;;;;;;;;;26.93;100.00;99847.25;5009594;28;19921;-75
2023/07/11 00:27:34;;;;;;;;;;;;;;;26.83;100.00;99847.84;5008181;28;19918;-75
2023/07/11 00:29:59;;;;;;;;;;;;;;;26.67;100.00;99842.41;5009114;28;19917;-75
2023/07/11 00:32:26;;;;;;;;;;;;;;;26.27;100.00;99842.38;5025927;28;19917;-74
2023/07/11 00:34:51;;;;;;;;;;;;;;;26.46;100.00;99841.16;5021653;28;20055;-73
2023/07/11 00:37:16;;;;;;;;;;;;;;;26.56;100.00;99840.53;5008963;28;19971;-75
2023/07/11 00:39:42;;;;;;;;;;;;;;;26.56;100.00;99845.97;5010200;28;19928;-75
2023/07/11 00:42:08;;;;;;;;;;;;;;;26.60;100.00;99836.28;5012845;28;19917;-74
2023/07/11 00:44:51;;;;;;;;;;;;;;;26.63;100.00;99838.50;5010593;28;19917;-75
2023/07/11 00:47:17;;;;;;;;;;;;;;;26.64;100.00;99834.75;5024710;28;19968;-75
2023/07/11 00:49:43;;;;;;;;;;;;;;;26.62;100.00;99839.59;5013809;28;19921;-74
2023/07/11 00:52:08;;;;;;;;;;;;;;;26.57;100.00;99829.47;5009406;28;19969;-74
2023/07/11 00:54:36;;;;;;;;;;;;;;;26.55;100.00;99833.50;5009904;28;19968;-75
2023/07/11 00:57:03;;;;;;;;;;;;;;;26.59;100.00;99837.34;5011734;28;19917;-75
2023/07/11 00:59:29;;;;;;;;;;;;;;;26.52;100.00;99836.66;5006862;28;19921;-75
2023/07/11 01:02:15;;;;;;;;;;;;;;;26.52;100.00;99833.94;5007746;28;19917;-75
2023/07/11 01:04:40;;;;;;;;;;;;;;;26.53;100.00;99835.59;5009811;28;19917;-74
2023/07/11 01:07:07;;;;;;;;;;;;;;;26.50;100.00;99834.22;5021378;28;19923;-73
2023/07/11 01:09:32;;;;;;;;;;;;;;;26.57;100.00;99848.41;5017209;28;20444;-75
2023/07/11 01:11:59;;;;;;;;;;;;;;;26.56;100.00;99840.53;5029740;28;19917;-74
2023/07/11 01:14:25;;;;;;;;;;;;;;;26.52;100.00;99840.19;5010849;28;19917;-75
2023/07/11 01:16:51;;;;;;;;;;;;;;;26.51;100.00;99837.75;5009656;28;20008;-75
2023/07/11 01:19:17;;;;;;;;;;;;;;;26.44;100.00;99836.00;5018236;28;19918;-75
2023/07/11 01:21:44;;;;;;;;;;;;;;;26.43;100.00;99837.03;5009952;28;19918;-75
2023/07/11 01:24:09;;;;;;;;;;;;;;;26.41;100.00;99833.75;5010343;28;19967;-75
2023/07/11 01:26:34;;;;;;;;;;;;;;;26.31;100.00;99828.13;5010089;28;19921;-75
2023/07/11 01:29:00;;;;;;;;;;;;;;;26.31;100.00;99830.84;5012674;28;19925;-74
2023/07/11 01:31:25;;;;;;;;;;;;;;;26.28;100.00;99833.19;5011290;28;19924;-75
2023/07/11 01:33:51;;;;;;;;;;;;;;;26.17;100.00;99832.13;5011627;28;19921;-75
2023/07/11 01:36:16;;;;;;;;;;;;;;;26.21;100.00;99836.00;5006428;28;19917;-74
2023/07/11 01:38:42;;;;;;;;;;;;;;;26.20;100.00;99837.06;5011904;28;19925;-74
2023/07/11 01:41:08;;;;;;;;;;;;;;;26.20;100.00;99831.66;5007258;28;20012;-74
2023/07/11 01:43:33;;;;;;;;;;;;;;;26.17;100.00;99832.13;5009621;28;19921;-75
2023/07/11 01:45:59;;;;;;;;;;;;;;;26.09;100.00;99835.19;5008495;28;19925;-75
2023/07/11 01:48:28;;;;;;;;;;;;;;;25.62;100.00;99835.16;5012267;28;19917;-75
2023/07/11 01:50:54;;;;;;;;;;;;;;;25.42;100.00;99833.84;5011685;28;20027;-75
2023/07/11 01:53:20;;;;;;;;;;;;;;;25.54;100.00;99838.22;5011235;28;20102;-74
2023/07/11 01:55:56;;;;;;;;;;;;;;;25.56;100.00;99836.13;5020056;28;19925;-74
2023/07/11 01:58:22;;;;;;;;;;;;;;;25.50;100.00;99831.63;5010069;28;19918;-75
2023/07/11 02:00:47;;;;;;;;;;;;;;;25.46;100.00;99829.59;5006331;28;19917;-74
2023/07/11 02:03:13;;;;;;;;;;;;;;;25.19;100.00;99830.03;5010660;28;19918;-74
2023/07/11 02:05:39;;;;;;;;;;;;;;;25.06;100.00;99829.41;5010387;28;19917;-75
2023/07/11 02:08:04;;;;;;;;;;;;;;;24.97;100.00;99834.31;5030527;28;20503;-75
2023/07/11 02:10:30;;;;;;;;;;;;;;;25.06;100.00;99824.81;5012021;28;19918;-75
2023/07/11 02:12:56;;;;;;;;;;;;;;;24.77;100.00;99822.94;5011021;28;19925;-76
2023/07/11 02:15:23;;;;;;;6.18;4.95;;;;;;;24.59;100.00;99823.78;5021222;28;19984;-75
2023/07/11 02:17:49;;;;;;;11.63;4.97;;;;;;;24.46;100.00;99832.03;5008027;28;20030;-75
2023/07/11 02:20:15;;;;;;;6.97;5.07;;;;;;;24.44;100.00;99820.66;5006489;28;20042;-74
2023/07/11 02:22:40;;;;;;;9.10;5.03;;;;;;;24.26;100.00;99817.97;5005886;28;20038;-75
2023/07/11 02:25:07;;;;;;;8.65;5.00;;;;;;;24.21;100.00;99823.22;5010775;28;20117;-75
2023/07/11 02:27:32;;;;;;;7.05;4.90;;;;;;;24.22;100.00;99822.16;5007931;28;20026;-75
2023/07/11 02:29:58;;;;;;;5.45;4.97;;;;;;;24.41;100.00;99819.22;5005278;28;20371;-74
2023/07/11 02:32:24;;;;;;;8.05;4.70;;;;;;;24.59;100.00;99822.97;5010822;28;20045;-74
2023/07/11 02:34:50;;;;;;;9.18;5.13;;;;;;;24.72;100.00;99828.19;5006341;28;20029;-73
2023/07/11 02:37:15;;;;;;;5.57;4.65;;;;;;;24.79;100.00;99816.25;5008262;28;20045;-74
2023/07/11 02:39:41;;;;;;;7.45;5.10;;;;;;;24.94;100.00;99820.44;5008290;28;20033;-74
2023/07/11 02:42:06;;;;;;;7.28;5.57;;;;;;;25.02;100.00;99809.31;5006787;28;20034;-74
2023/07/11 02:44:32;;;;;;;7.28;5.40;;;;;;;25.11;100.00;99811.44;5005475;28;20033;-74
2023/07/11 02:46:57;;;;;;;7.70;5.17;;;;;;;25.18;100.00;99820.28;5009117;28;20056;-74
2023/07/11 02:49:23;;;;;;;6.25;4.88;;;;;;;25.23;100.00;99816.88;5005516;28;20068;-73
2023/07/11 02:51:48;;;;;;;6.40;5.10;;;;;;;25.28;100.00;99825.09;5010956;28;20041;-74
2023/07/11 02:54:14;;;;;;;;;;;;;;;25.25;100.00;99817.47;5007705;28;19921;-74
2023/07/11 02:56:40;;;;;;;;;;;;;;;25.19;100.00;99818.41;5005946;28;19926;-74
2023/07/11 02:59:05;;;;;;;;;;;;;;;25.04;100.00;99815.28;5008101;28;19926;-74
2023/07/11 03:01:31;;;;;;;;;;;;;;;24.95;100.00;99822.09;5024806;28;19921;-74
2023/07/11 03:03:57;;;;;;;;;;;;;;;24.77;100.00;99823.75;5007647;28;20386;-73
2023/07/11 03:06:23;;;;;;;;;;;;;;;24.44;100.00;99818.78;5010903;28;19925;-73
2023/07/11 03:08:49;;;;;;;;;;;;;;;24.47;100.00;99820.19;5007215;28;19997;-74
2023/07/11 03:11:15;;;;;;;5.80;5.28;;;;;;;24.50;100.00;99819.75;5010894;28;19983;-72
2023/07/11 03:13:41;;;;;;;9.45;5.43;;;;;;;24.12;100.00;99833.44;5006471;28;20065;-74
2023/07/11 03:16:07;;;;;;;9.73;5.60;;;;;;;23.95;100.00;99825.09;5003557;28;20380;-74
2023/07/11 03:18:33;;;;;;;7.10;5.82;;;;;;;24.06;100.00;99829.75;5009097;28;20080;-73
2023/07/11 03:21:00;;;;;;;7.63;5.87;;;;;;;23.93;100.00;99832.59;5007871;28;20049;-74
2023/07/11 03:23:29;;;;;;;7.75;5.93;;;;;;;23.93;100.00;99835.28;5004839;28;20304;-74
2023/07/11 03:25:55;;;;;;;7.55;5.28;;;;;;;23.94;100.00;99831.53;5009400;28;20041;-73
2023/07/11 03:28:20;;;;;;;7.32;5.28;;;;;;;23.96;100.00;99834.84;5005611;28;20026;-74
2023/07/11 03:30:47;;;;;;;8.65;5.90;;;;;;;23.86;100.00;99839.91;5006514;28;20183;-74
2023/07/11 03:33:13;;;;;;;9.35;5.38;;;;;;;24.01;100.00;99837.69;5009000;28;20048;-74
2023/07/11 03:35:39;;;;;;;7.60;5.30;;;;;;;23.97;100.00;99838.38;5005142;28;20116;-74
2023/07/11 03:38:05;;;;;;;9.02;5.45;;;;;;;24.02;100.00;99838.53;5008354;28;20045;-74
2023/07/11 03:40:30;;;;;;;7.80;5.28;;;;;;;24.15;100.00;99837.56;5009233;28;20046;-74
2023/07/11 03:42:56;;;;;;;8.43;4.88;;;;;;;24.24;100.00;99836.25;5006819;28;20025;-74
2023/07/11 03:45:22;;;;;;;9.48;5.13;;;;;;;24.24;100.00;99836.25;5010091;28;20109;-74
2023/07/11 03:47:48;;;;;;;8.48;5.50;;;;;;;24.22;100.00;99839.16;5024008;28;20120;-73
2023/07/11 03:50:14;;;;;;;9.98;5.70;;;;;;;24.12;100.00;99835.31;5009890;28;20433;-74
2023/07/11 03:52:40;;;;;;;8.52;5.60;;;;;;;23.89;100.00;99839.47;5009118;28;20038;-75
2023/07/11 03:55:07;;;;;;;10.98;5.57;;;;;;;23.90;100.00;99841.13;5006087;28;20160;-74
2023/07/11 03:57:33;;;;;;;8.85;5.70;;;;;;;23.67;100.00;99840.94;5005328;28;20109;-75
2023/07/11 03:59:58;;;;;;;10.27;5.20;;;;;;;23.67;100.00;99839.06;5005345;28;20141;-74
2023/07/11 04:02:24;;;;;;;6.47;5.20;;;;;;;23.64;100.00;99846.75;5010845;28;20033;-74
2023/07/11 04:04:49;;;;;;;9.07;5.32;;;;;;;23.73;100.00;99841.91;5006436;28;20032;-74
2023/07/11 04:07:15;;;;;;;7.95;5.05;;;;;;;23.81;100.00;99839.75;5007891;28;20068;-74
2023/07/11 04:09:41;;;;;;;9.43;5.70;;;;;;;23.88;100.00;99843.22;5007660;28;20034;-76
2023/07/11 04:12:08;;;;;;;7.55;5.28;;;;;;;23.73;100.00;99837.34;5005263;28;20057;-74
2023/07/11 04:14:33;;;;;;;8.20;5.90;;;;;;;23.62;100.00;99846.16;5006242;28;20037;-75
2023/07/11 04:16:59;;;;;;;7.05;5.28;;;;;;;23.59;100.00;99839.31;5004054;28;20025;-75
2023/07/11 04:19:24;;;;;;;9.05;5.47;;;;;;;23.58;100.00;99837.69;5004682;28;20092;-75
2023/07/11 04:21:50;;;;;;;5.90;5.30;;;;;;;23.65;100.00;99838.44;5005462;28;20450;-74
2023/07/11 04:24:16;;;;;;;7.95;5.20;;;;;;;23.71;100.00;99835.91;5006671;28;20022;-75
2023/07/11 04:26:42;;;;;;;8.88;6.03;;;;;;;23.71;100.00;99836.75;5005026;28;20044;-75
2023/07/11 04:29:07;;;;;;;9.43;5.80;;;;;;;23.69;100.00;99841.50;5005182;28;20026;-74
2023/07/11 04:31:33;;;;;;;11.40;5.47;;;;;;;23.78;100.00;99848.28;5007673;28;19970;-75
2023/07/11 04:33:59;;;;;;;9.52;5.53;;;;;;;23.81;100.00;99847.84;5007345;28;20033;-74
2023/07/11 04:36:25;;;;;;;6.18;5.30;;;;;;;23.88;100.00;99837.81;5004022;28;20064;-75
2023/07/11 04:38:51;;;;;;;7.35;5.60;;;;;;;23.81;100.00;99853.22;5010407;28;20022;-74
2023/07/11 04:41:16;;;;;;;9.15;5.65;;;;;;;23.89;100.00;99849.44;5005234;28;20180;-75
2023/07/11 04:43:42;;;;;;;6.38;5.53;;;;;;;23.92;100.00;99846.28;5006415;28;20092;-75
2023/07/11 04:46:08;;;;;;;6.68;5.45;;;;;;;23.94;100.00;99853.09;5007269;28;20067;-75
2023/07/11 04:48:35;;;;;;;12.20;5.50;;;;;;;24.04;100.00;99855.28;5005904;28;20393;-75
2023/07/11 04:51:07;;;;;;;11.13;5.68;;;;;;;24.08;100.00;99854.63;5007320;28;20048;-75
2023/07/11 04:53:33;;;;;;;15.38;6.43;;;;;;;24.13;100.00;99851.25;5006874;28;20241;-74
2023/07/11 04:56:03;;;;;;;6.28;5.43;;;;;;;24.15;100.00;99859.13;5005112;28;20413;-75
2023/07/11 04:58:30;;;;;;;8.25;6.70;;;;;;;24.20;100.00;99862.00;5005962;28;20117;-76
2023/07/11 05:01:07;;;;;;;7.07;5.20;;;;;;;24.22;100.00;99870.69;5005933;28;20438;-76
2023/07/11 05:03:33;;;;;;;6.95;6.20;;;;;;;24.12;100.00;99864.97;5009504;28;20045;-73
2023/07/11 05:05:59;;;;;;;6.63;5.93;;;;;;;24.17;100.00;99865.94;5008637;28;20034;-74
2023/07/11 05:08:25;;;;;;;6.35;5.75;;;;;;;24.21;100.00;99867.16;5004367;28;20118;-75
2023/07/11 05:10:53;;;;;;;6.38;5.55;;;;;;;24.30;100.00;99862.31;5009534;28;20125;-75
2023/07/11 05:13:19;;;;;;;9.30;6.05;;;;;;;24.37;100.00;99857.66;5003864;28;20390;-75
2023/07/11 05:15:45;;;;;;;10.13;5.97;;;;;;;24.48;100.00;99865.00;5003316;28;20105;-74
2023/07/11 05:18:11;;;;;;;9.30;5.82;;;;;;;24.56;100.00;99878.22;5004289;28;20045;-74
2023/07/11 05:20:37;;;;;;;9.43;5.60;;;;;;;24.63;100.00;99867.31;5005526;28;20050;-76
2023/07/11 05:23:02;;;;;;;;;;;;;;;24.69;100.00;99867.22;5020934;23;20510;-76
2023/07/11 05:25:27;;;;;;;;;;;;;;;24.79;100.00;99864.84;5032794;28;20376;-74
2023/07/11 05:27:53;;;;;;;;;;;;;;;24.73;100.00;99873.84;5033720;28;20754;-74
2023/07/11 05:30:18;;;;;;;;;;;;;;;24.79;100.00;99875.63;5034201;28;20301;-74
2023/07/11 05:32:43;;;;;;;;;;;;;;;24.90;100.00;99878.66;5033653;28;19992;-74
2023/07/11 05:35:09;;;;;;;;;;;;;;;24.84;100.00;99881.16;5048875;28;19913;-74
2023/07/11 05:37:34;;;;;;;;;;;;;;;24.94;100.00;99871.72;5033502;28;19924;-75
2023/07/11 05:39:59;;;;;;;;;;;;;;;24.92;100.00;99871.94;5033415;28;19962;-74
2023/07/11 05:42:25;;;;;;;;;;;;;;;24.95;100.00;99866.09;5034068;28;19912;-74
2023/07/11 05:44:50;;;;;;;;;;;;;;;24.97;100.00;99873.97;5033608;28;19954;-74
2023/07/11 05:47:15;;;;;;;;;;;;;;;25.07;100.00;99874.25;5033926;28;20586;-74
2023/07/11 05:49:40;;;;;;;;;;;;;;;25.08;100.00;99870.50;5032972;28;19970;-74
2023/07/11 05:52:06;;;;;;;;;;;;;;;25.12;100.00;99866.28;5033176;28;19943;-74
2023/07/11 05:54:31;;;;;;;;;;;;;;;24.92;100.00;99873.84;5033361;28;19917;-74
2023/07/11 05:56:56;;;;;;;;;;;;;;;24.77;100.00;99877.72;5033250;28;20293;-75
2023/07/11 05:59:22;;;;;;;;;;;;;;;24.76;100.00;99872.56;5033732;28;19921;-74
2023/07/11 06:01:47;;;;;;;;;;;;;;;24.60;100.00;99884.78;5033055;28;19967;-73
2023/07/11 06:04:14;;;;;;;;;;;;;;;24.68;100.00;99881.78;5033400;28;19925;-74
2023/07/11 06:06:42;;;;;;;;;;;;;;;24.77;100.00;99880.44;5032530;28;19919;-75
2023/07/11 06:09:15;;;;;;;;;;;;;;;24.84;100.00;99881.16;5032953;28;19971;-75
2023/07/11 06:11:41;;;;;;;;;;;;;;;24.95;100.00;99876.09;5032856;28;19917;-75
2023/07/11 06:14:06;;;;;;;;;;;;;;;25.06;100.00;99886.09;5029306;28;19917;-74
2023/07/11 06:16:32;;;;;;;;;;;;;;;25.18;100.00;99881.56;5033130;28;19999;-75
2023/07/11 06:18:58;;;;;;;;;;;;;;;25.24;100.00;99869.84;5033204;28;19944;-74
2023/07/11 06:21:23;;;;;;;;;;;;;;;25.33;100.00;99878.47;5032486;28;19955;-75
2023/07/11 06:23:49;;;;;;;;;;;;;;;25.42;100.00;99877.88;5032221;28;19971;-76
2023/07/11 06:26:14;;;;;;;;;;;;;;;25.51;100.00;99871.06;5028890;28;20358;-75
2023/07/11 06:28:40;;;;;;;;;;;;;;;25.64;100.00;99881.72;5032772;28;20386;-75
2023/07/11 06:31:05;;;;;;;;;;;;;;;25.74;100.00;99877.63;5032929;28;19928;-74
2023/07/11 06:33:31;;;;;;;;;;;;;;;25.83;100.00;99878.91;5028880;28;20000;-73
2023/07/11 06:35:57;;;;;;;;;;;;;;;25.92;100.00;99882.94;5032673;28;19971;-73
2023/07/11 06:38:22;;;;;;;;;;;;;;;26.01;100.00;99878.81;5032422;28;19928;-73
2023/07/11 06:40:49;;;;;;;;;;;;;;;26.10;100.00;99880.09;5028008;28;19917;-74
2023/07/11 06:43:15;;;;;;;;;;;;;;;26.10;100.00;99880.09;5032906;28;20404;-72
2023/07/11 06:45:40;;;;;;;;;;;;;;;26.16;100.00;99878.31;5032223;28;19917;-76
2023/07/11 06:48:05;;;;;;;;;;;;;;;26.26;100.00;99873.19;5032775;28;20349;-75
2023/07/11 06:50:31;;;;;;;;;;;;;;;26.34;100.00;99872.81;5032058;28;19917;-73
2023/07/11 06:52:56;;;;;;;;;;;;;;;26.30;100.00;99877.88;5027922;28;19931;-73
2023/07/11 06:55:22;;;;;;;;;;;;;;;26.31;100.00;99882.25;5031931;28;19921;-73
2023/07/11 06:57:47;;;;;;;9.63;8.45;;;;;;;26.45;100.00;99877.38;5027854;28;20618;-73
2023/07/11 07:00:12;;;;;;;;;;;;;;;26.59;100.00;99877.94;5032230;28;20382;-74
2023/07/11 07:02:38;;;;;;;;;;;;;;;26.68;100.00;99877.34;5032200;28;19967;-74
2023/07/11 07:05:03;;;;;;;;;;;;;;;26.82;100.00;99877.88;5031955;28;19925;-74
2023/07/11 07:07:29;;;;;;;;;;;;;;;26.92;100.00;99875.38;5032076;28;19927;-74
2023/07/11 07:09:54;;;;;;;13.95;9.80;;;;;;;26.93;100.00;99874.34;5026626;28;20381;-74
2023/07/11 07:12:23;;;;;;;14.40;10.63;;;;;;;27.05;100.00;99882.41;5031728;28;20026;-74
2023/07/11 07:14:49;;;;;;;10.80;9.70;;;;;;;27.15;100.00;99878.03;5027685;28;20028;-74
2023/07/11 07:17:16;;;;;;;;;;;;;;;27.24;100.00;99876.56;5032169;28;19921;-73
2023/07/11 07:19:43;;;;;;;;;;;;;;;27.32;100.00;99874.53;5031876;28;19925;-74
2023/07/11 07:22:08;;;;;;;;;;;;;;;27.40;100.00;99871.41;5030994;28;19921;-74
2023/07/11 07:24:34;;;;;;;;;;;;;;;27.46;100.00;99873.94;5030781;28;20013;-74
2023/07/11 07:26:59;;;;;;;;;;;;;;;27.54;100.00;99872.78;5029267;28;20015;-74
2023/07/11 07:29:24;;;;;;;;;;;;;;;27.60;100.00;99874.50;5029252;28;19924;-74
2023/07/11 07:31:50;;;;;;;;;;;;;;;27.65;100.00;99871.88;5031593;28;19928;-73
2023/07/11 07:34:15;;;;;;;;;;;;;;;27.70;100.00;99871.94;5031888;28;19929;-74
2023/07/11 07:36:40;;;;;;;;;;;;;;;27.81;100.00;99868.31;5031324;28;19933;-75
2023/07/11 07:39:06;;;;;;;;;;;;;;;27.87;100.00;99864.63;5031278;28;19921;-75
2023/07/11 07:41:31;;;;;;;;;;;;;;;27.94;100.00;99870.69;5031436;28;20349;-75
2023/07/11 07:43:56;;;;;;;;;;;;;;;28.00;100.00;99875.13;5031136;28;19932;-75
2023/07/11 07:46:22;;;;;;;;;;;;;;;28.03;100.00;99868.41;5031441;28;20365;-74
2023/07/11 07:48:47;;;;;;;;;;;;;;;28.05;100.00;99861.63;5031329;28;20396;-74
2023/07/11 07:51:18;;;;;;;;;;;;;;;28.13;100.00;99873.13;5027258;28;19975;-75
2023/07/11 07:53:44;;;;;;;18.90;12.30;;;;;;;28.19;100.00;99866.75;5030768;28;19972;-75
2023/07/11 07:56:12;;;;;;;15.55;10.48;;;;;;;28.27;100.00;99877.19;5030866;28;20822;-75
2023/07/11 07:58:39;;;;;;;14.38;10.68;;;;;;;28.37;100.00;99871.88;5030448;28;20044;-75
2023/07/11 08:01:05;;;;;;;12.05;10.90;;;;;;;28.44;100.00;99864.38;5031017;28;20022;-75
2023/07/11 08:03:31;;;;;;;;;;;;;;;28.50;100.00;99868.81;5030098;28;20006;-76
2023/07/11 08:05:57;;;;;;;;;;;;;;;28.55;100.00;99858.00;5029442;28;19949;-75
2023/07/11 08:08:23;;;;;;;;;;;;;;;28.61;100.00;99854.28;5031390;28;19916;-74
2023/07/11 08:10:48;;;;;;;;;;;;;;;28.65;100.00;99852.69;5030241;28;19923;-75
2023/07/11 08:13:13;;;;;;;;;;;;;;;28.68;100.00;99854.09;5031046;28;19917;-75
2023/07/11 08:15:41;;;;;;;;;;;;;;;28.76;100.00;99853.66;5029237;28;19917;-75
2023/07/11 08:18:06;;;;;;;;;;;;;;;28.78;100.00;99865.91;5031271;28;19939;-75
2023/07/11 08:20:32;;;;;;;;;;;;;;;28.83;100.00;99868.69;5029757;28;20377;-75
2023/07/11 08:22:57;;;;;;;;;;;;;;;28.90;100.00;99868.50;5031069;28;19917;-75
2023/07/11 08:25:22;;;;;;;;;;;;;;;28.90;100.00;99869.31;5030633;28;20427;-75
2023/07/11 08:27:47;;;;;;;;;;;;;;;28.92;100.00;99861.72;5030379;28;20015;-74
2023/07/11 08:30:13;;;;;;;;;;;;;;;28.92;100.00;99850.84;5046027;28;19917;-76
2023/07/11 08:32:41;;;;;;;;;;;;;;;28.99;100.00;99838.97;5030766;28;19917;-75
2023/07/11 08:35:06;;;;;;;;;;;;;;;29.04;100.00;99837.13;5031122;28;19917;-75
2023/07/11 08:37:32;;;;;;;;;;;;;;;29.11;100.00;99835.03;5030937;28;19976;-75
2023/07/11 08:39:58;;;;;;;;;;;;;;;29.13;100.00;99829.34;5030443;28;19921;-75
2023/07/11 08:42:30;;;;;;;;;;;;;;;29.20;100.00;99836.22;5030725;28;20392;-75
2023/07/11 08:45:03;;;;;;;;;;;;;;;29.28;100.00;99832.19;5026914;28;19917;-75
2023/07/11 08:47:31;;;;;;;;;;;;;;;29.30;100.00;99827.31;5030762;28;19980;-75
2023/07/11 08:49:59;;;;;;;;;;;;;;;29.41;100.00;99834.50;5030455;28;19921;-73
2023/07/11 08:52:25;;;;;;;;;;;;;;;29.49;100.00;99833.22;5030888;28;19916;-73
2023/07/11 08:54:54;;;;;;;;;;;;;;;29.55;100.00;99833.00;5030258;28;19924;-73
2023/07/11 08:57:23;;;;;;;;;;;;;;;29.60;100.00;99835.75;5032530;28;19968;-73
2023/07/11 09:00:05;;;;;;;;;;;;;;;29.65;100.00;99833.06;5033867;28;19924;-74
2023/07/11 09:02:36;;;;;;;;;;;;;;;29.72;100.00;99827.41;5032728;28;19924;-74
2023/07/11 09:05:03;;;;;;;;;;;;;;;29.77;100.00;99819.28;5030613;28;19924;-74
2023/07/11 09:07:38;;;;;;;;;;;;;;;29.83;100.00;99814.69;5034592;28;19917;-74
2023/07/11 09:10:19;;;;;;;;;;;;;;;29.90;100.00;99820.75;5033950;28;20011;-74
2023/07/11 09:12:53;;;;;;;;;;;;;;;29.96;100.00;99817.81;5034095;28;19996;-74
2023/07/11 09:15:22;;;;;;;;;;;;;;;30.03;100.00;99809.44;5034449;28;20291;-74
2023/07/11 09:17:55;;;;;;;;;;;;;;;30.06;100.00;99806.16;5034069;28;20529;-74
2023/07/11 09:20:26;;;;;;;;;;;;;;;30.06;100.00;99795.28;5034319;28;19923;-74
2023/07/11 09:23:13;;;;;;;;;;;;;;;30.09;100.00;99798.31;5030159;28;19925;-74
2023/07/11 09:25:43;;;;;;;;;;;;;;;30.17;100.00;99802.41;5032226;28;19960;-74
2023/07/11 09:28:23;;;;;;;;;;;;;;;30.24;100.00;99807.63;5034166;28;19987;-74
2023/07/11 09:30:56;;;;;;;;;;;;;;;30.24;100.00;99803.00;5033364;28;19920;-74
2023/07/11 09:33:23;;;;;;;;;;;;;;;30.30;100.00;99804.66;5032899;28;19917;-74
2023/07/11 09:35:50;;;;;;;;;;;;;;;30.34;100.00;99797.56;5033761;28;19975;-74
2023/07/11 09:38:23;;;;;;;;;;;;;;;30.40;100.00;99798.41;5034191;28;19917;-74
2023/07/11 09:40:50;;;;;;;;;;;;;;;30.45;100.00;99793.84;5033332;28;19952;-74
2023/07/11 09:43:15;;;;;;;;;;;;;;;30.49;100.00;99800.41;5034127;28;19923;-74
2023/07/11 09:45:42;;;;;;;;;;;;;;;30.52;100.00;99788.97;5032857;28;19916;-74
2023/07/11 09:48:10;;;;;;;;;;;;;;;30.59;100.00;99787.91;5033523;28;20030;-74
2023/07/11 09:50:41;;;;;;;;;;;;;;;30.65;100.00;99781.38;5033262;28;19921;-74
2023/07/11 09:53:13;;;;;;;;;;;;;;;30.72;100.00;99781.94;5034028;28;20341;-74
2023/07/11 09:55:39;;;;;;;;;;;;;;;30.78;100.00;99786.31;5031286;28;19959;-74
2023/07/11 09:58:04;;;;;;;;;;;;;;;30.84;100.00;99782.50;5033700;28;19956;-75
2023/07/11 10:00:30;;;;;;;;;;;;;;;30.88;100.00;99784.44;5033466;28;19932;-74
2023/07/11 10:02:57;;;;;;;;;;;;;;;30.92;100.00;99776.53;5028894;28;19917;-72
2023/07/11 10:05:23;;;;;;;;;;;;;;;30.95;100.00;99781.44;5029406;28;19967;-74
2023/07/11 10:07:59;;;;;;;;;;;;;;;30.99;100.00;99782.53;5032157;28;20292;-75
2023/07/11 10:10:24;;;;;;;;;;;;;;;31.04;97.40;99779.88;5029883;28;19967;-73
2023/07/11 10:12:50;;;;;;;;;;;;;;;31.06;93.14;99777.66;5033001;28;19952;-74
2023/07/11 10:15:18;;;;;;;;;;;;;;;31.10;93.75;99773.31;5032992;28;20323;-74
2023/07/11 10:17:44;;;;;;;;;;;;;;;31.14;93.01;99774.41;5032435;28;20377;-75
2023/07/11 10:20:15;;;;;;;;;;;;;;;31.20;92.37;99773.31;5028591;28;19917;-73
2023/07/11 10:22:42;;;;;;;;;;;;;;;31.25;91.42;99776.03;5027171;28;20257;-75
2023/07/11 10:25:21;;;;;;;;;;;;;;;31.28;91.20;99774.66;5032512;28;20004;-75
2023/07/11 10:28:05;;;;;;;;;;;;;;;31.32;90.02;99775.78;5032783;28;20649;-75
2023/07/11 10:30:32;;;;;;;;;;;;;;;31.36;88.37;99771.41;5030033;28;19917;-74
2023/07/11 10:33:10;;;;;;;;;;;;;;;31.38;89.14;99773.88;5032174;28;20036;-73
2023/07/11 10:35:37;;;;;;;;;;;;;;;31.47;87.12;99767.56;5032450;28;20403;-74
2023/07/11 10:38:13;;;;;;;;;;;;;;;31.52;86.92;99769.47;5032434;28;19921;-74
2023/07/11 10:40:43;;;;;;;;;;;;;;;31.57;86.81;99755.84;5032133;28;19920;-75
2023/07/11 10:43:29;;;;;;;;;;;;;;;31.63;85.79;99752.06;5031031;28;19964;-74
2023/07/11 10:46:01;;;;;;;;;;;;;;;31.71;84.81;99752.28;5029177;28;20012;-73
2023/07/11 10:48:33;;;;;;;;;;;;;;;31.85;83.54;99751.72;5028995;28;20327;-74
2023/07/11 10:51:00;;;;;;;;;;;;;;;31.90;83.48;99749.78;5032111;28;19979;-74
2023/07/11 10:53:47;;;;;;;9.27;6.68;;;;;;;31.94;83.18;99745.41;5030672;28;19952;-73
2023/07/11 10:56:33;;;;;;;8.23;6.65;;;;;;;31.95;82.95;99743.47;5026680;28;20117;-74
2023/07/11 10:58:58;;;;;;;;;;;;;;;31.97;84.36;99742.13;5030375;28;20274;-74
2023/07/11 11:01:23;;;;;;;;;;;;;;;31.99;84.11;99729.00;5032443;28;19921;-75
2023/07/11 11:03:57;;;;;;;;;;;;;;;32.05;82.54;99736.06;5031424;28;20266;-73
2023/07/11 11:06:36;;;;;;;;;;;;;;;32.09;82.32;99734.44;5032159;28;20027;-73
2023/07/11 11:09:11;;;;;;;;;;;;;;;32.16;82.61;99730.63;5029438;28;19917;-73
2023/07/11 11:11:52;;;;;;;;;;;;;;;32.26;81.12;99725.09;5032245;28;20387;-74
2023/07/11 11:14:25;;;;;;;;;;;;;;;32.35;80.26;99726.13;5031179;28;19952;-73
2023/07/11 11:16:50;;;;;;;;;;;;;;;32.42;76.98;99718.44;5031598;28;20016;-73
2023/07/11 11:19:34;;;;;;;;;;;;;;;32.43;77.29;99715.44;5026648;28;20019;-74
2023/07/11 11:22:10;;;;;;;;;;;;;;;32.48;76.51;99715.41;5030345;28;19932;-74
2023/07/11 11:24:35;;;;;;;;;;;;;;;32.52;74.97;99713.75;5031473;28;19974;-75
2023/07/11 11:27:20;;;;;;;;;;;;;;;32.59;72.46;99713.44;5032222;28;20274;-75
2023/07/11 11:29:55;;;;;;;;;;;;;;;32.59;73.26;99707.97;5031120;28;20521;-75
2023/07/11 11:32:25;;;;;;;;;;;;;;;32.67;73.43;99704.66;5031776;28;19996;-73
2023/07/11 11:35:03;;;;;;;;;;;;;;;32.75;71.53;99695.84;5030970;28;20185;-74
2023/07/11 11:37:31;;;;;;;;;;;;;;;32.80;72.70;99698.56;5024195;28;19928;-75
2023/07/11 11:40:04;;;;;;;;;;;;;;;32.93;70.27;99697.06;5031010;28;19971;-75
2023/07/11 11:42:31;;;;;;;;;;;;;;;32.98;70.28;99696.25;5028474;28;19921;-75
2023/07/11 11:45:02;;;;;;;;;;;;;;;33.04;69.00;99697.81;5031364;28;20301;-75
2023/07/11 11:47:29;;;;;;;;;;;;;;;33.07;68.60;99691.78;5031432;28;19932;-75
2023/07/11 11:49:55;;;;;;;;;;;;;;;33.13;67.79;99685.97;5031092;28;19924;-75
2023/07/11 11:52:21;;;;;;;;;;;;;;;33.21;67.39;99684.56;5031290;28;19921;-75
2023/07/11 11:54:47;;;;;;;;;;;;;;;33.32;65.48;99672.44;5031251;28;20552;-75
2023/07/11 11:57:15;;;;;;;;;;;;;;;33.35;65.48;99677.31;5031193;28;19932;-75
2023/07/11 11:59:41;;;;;;;;;;;;;;;33.40;64.34;99677.25;5030976;28;19921;-75
2023/07/11 12:02:11;;;;;;;;;;;;;;;33.40;64.66;99679.97;5027367;28;19921;-76
2023/07/11 12:04:42;;;;;;;;;;;;;;;33.45;65.08;99676.41;5031072;28;20285;-75
2023/07/11 12:07:10;;;;;;;;;;;;;;;33.51;63.54;99672.50;5031101;28;20302;-75
2023/07/11 12:09:36;;;;;;;;;;;;;;;33.62;64.04;99672.09;5030832;28;20350;-75
2023/07/11 12:12:01;;;;;;;;;;;;;;;33.81;61.83;99674.09;5030996;28;19925;-74
2023/07/11 12:14:28;;;;;;;;;;;;;;;33.86;61.58;99666.63;5027069;28;20012;-74
2023/07/11 12:16:53;;;;;;;;;;;;;;;34.01;61.19;99666.44;5027999;28;19928;-74
2023/07/11 12:19:27;;;;;;;;;;;;;;;34.20;61.58;99666.47;5031381;28;19947;-75